createdAt,value
2019-03-05T00:00:40.271Z,8.08
2019-03-05T00:03:10.665Z,6.92
2019-03-05T00:05:40.925Z,12.58
2019-03-05T00:08:11.232Z,8.68
2019-03-05T00:10:46.428Z,9.98
2019-03-05T00:13:13.337Z,8.40
2019-03-05T00:15:44.453Z,7.95
2019-03-05T00:18:14.999Z,10.78
2019-03-05T00:20:45.174Z,12.73
2019-03-05T00:23:18.433Z,12.65
2019-03-05T00:25:48.772Z,9.05
2019-03-05T00:28:41.446Z,10.43
2019-03-05T00:31:17.583Z,9.80
2019-03-05T00:34:03.958Z,10.50
2019-03-05T00:36:40.293Z,7.53
2019-03-05T00:39:16.673Z,6.72
2019-03-05T00:41:55.728Z,8.60
2019-03-05T00:44:42.025Z,10.00
2019-03-05T00:47:36.436Z,8.53
2019-03-05T00:50:12.543Z,8.68
2019-03-05T00:52:48.908Z,16.48
2019-03-05T00:55:57.512Z,8.78
2019-03-05T00:58:30.744Z,11.65
2019-03-05T01:01:12.998Z,9.63
2019-03-05T01:03:49.039Z,12.35
2019-03-05T01:06:22.060Z,13.35
2019-03-05T01:08:54.100Z,11.88
2019-03-05T01:11:25.154Z,10.55
2019-03-05T01:13:55.304Z,12.80
2019-03-05T01:16:31.239Z,11.75
2019-03-05T01:19:01.515Z,12.05
2019-03-05T01:21:31.853Z,8.48
2019-03-05T01:24:03.685Z,9.68
2019-03-05T01:26:35.083Z,11.47
2019-03-05T01:29:05.941Z,12.07
2019-03-05T01:31:46.983Z,11.38
2019-03-05T01:34:18.841Z,14.55
2019-03-05T01:36:50.755Z,11.97
2019-03-05T01:39:31.160Z,12.82
2019-03-05T01:42:01.519Z,10.38
2019-03-05T01:44:31.815Z,12.58
2019-03-05T01:47:02.083Z,12.20
2019-03-05T01:49:32.376Z,13.48
2019-03-05T01:52:02.643Z,16.50
2019-03-05T01:54:32.957Z,10.38
2019-03-05T01:57:03.225Z,9.68
2019-03-05T01:59:33.523Z,12.68
2019-03-05T02:02:04.239Z,12.25
2019-03-05T02:04:34.669Z,14.63
2019-03-05T02:07:05.927Z,14.25
2019-03-05T02:09:49.144Z,12.82
2019-03-05T02:12:19.414Z,12.23
2019-03-05T02:14:49.765Z,9.88
2019-03-05T02:17:21.032Z,13.10
2019-03-05T02:19:52.835Z,10.00
2019-03-05T02:22:33.982Z,12.18
2019-03-05T02:25:16.179Z,12.70
2019-03-05T02:28:24.366Z,12.13
2019-03-05T02:31:03.476Z,8.25
2019-03-05T02:33:36.594Z,12.13
2019-03-05T02:36:15.772Z,10.55
2019-03-05T02:39:07.822Z,10.05
2019-03-05T02:42:01.700Z,11.57
2019-03-05T02:44:43.385Z,8.93
2019-03-05T02:47:42.763Z,6.05
2019-03-05T02:50:30.967Z,10.70
2019-03-05T02:53:06.984Z,8.33
2019-03-05T02:55:51.522Z,10.63
2019-03-05T02:58:20.630Z,8.85
2019-03-05T03:01:01.312Z,9.90
2019-03-05T03:03:33.223Z,7.95
2019-03-05T03:06:14.047Z,9.70
2019-03-05T03:08:44.381Z,8.80
2019-03-05T03:11:14.660Z,10.80
2019-03-05T03:13:45.122Z,14.30
2019-03-05T03:16:18.520Z,9.50
2019-03-05T03:18:48.894Z,10.10
2019-03-05T03:21:19.167Z,7.00
2019-03-05T03:23:52.594Z,10.95
2019-03-05T03:26:25.878Z,10.45
2019-03-05T03:28:56.244Z,10.00
2019-03-05T03:31:26.577Z,9.68
2019-03-05T03:33:56.984Z,8.63
2019-03-05T03:36:27.296Z,6.67
2019-03-05T03:38:57.645Z,6.90
2019-03-05T03:41:27.977Z,7.12
2019-03-05T03:43:58.316Z,5.47
2019-03-05T03:46:28.522Z,9.03
2019-03-05T03:49:03.632Z,11.15
2019-03-05T03:51:33.891Z,9.70
2019-03-05T03:54:06.923Z,10.60
2019-03-05T03:56:37.138Z,9.50
2019-03-05T03:59:07.578Z,8.05
2019-03-05T04:01:44.456Z,14.40
2019-03-05T04:04:11.832Z,9.90
2019-03-05T04:06:42.110Z,14.73
2019-03-05T04:09:12.579Z,10.75
2019-03-05T04:11:42.851Z,8.30
2019-03-05T04:14:13.200Z,10.68
2019-03-05T04:16:43.465Z,12.43
2019-03-05T04:19:15.411Z,19.70
2019-03-05T04:21:45.685Z,14.73
2019-03-05T04:24:15.997Z,13.40
2019-03-05T04:26:46.252Z,14.38
2019-03-05T04:29:16.469Z,16.60
2019-03-05T04:31:52.976Z,21.40
2019-03-05T04:34:22.768Z,14.60
2019-03-05T04:36:53.025Z,11.83
2019-03-05T04:39:24.638Z,13.83
2019-03-05T04:41:54.884Z,12.33
2019-03-05T04:44:26.752Z,10.10
2019-03-05T04:46:57.048Z,11.70
2019-03-05T04:49:28.904Z,15.60
2019-03-05T04:52:03.757Z,14.47
2019-03-05T04:54:35.212Z,13.95
2019-03-05T04:57:05.542Z,15.85
2019-03-05T04:59:37.413Z,9.55
2019-03-05T05:02:09.199Z,10.78
2019-03-05T05:04:39.433Z,13.10
2019-03-05T05:07:09.718Z,17.07
2019-03-05T05:09:40.014Z,10.45
2019-03-05T05:12:10.341Z,11.28
2019-03-05T05:14:40.574Z,8.68
2019-03-05T05:17:12.518Z,9.18
2019-03-05T05:19:46.834Z,11.12
2019-03-05T05:22:17.107Z,14.93
2019-03-05T05:24:47.361Z,13.58
2019-03-05T05:27:17.710Z,12.10
2019-03-05T05:29:48.013Z,13.60
2019-03-05T05:32:18.691Z,9.95
2019-03-05T05:34:48.984Z,15.50
2019-03-05T05:37:19.319Z,12.58
2019-03-05T05:40:20.239Z,14.33
2019-03-05T05:42:50.581Z,14.80
2019-03-05T05:45:26.654Z,12.82
2019-03-05T05:47:56.928Z,16.87
2019-03-05T05:50:27.269Z,18.40
2019-03-05T05:52:57.561Z,11.83
2019-03-05T05:55:27.880Z,15.45
2019-03-05T05:57:58.138Z,13.50
2019-03-05T06:00:28.608Z,19.45
2019-03-05T06:02:59.034Z,13.40
2019-03-05T06:05:29.556Z,18.40
2019-03-05T06:08:00.829Z,13.58
2019-03-05T06:10:31.132Z,12.85
2019-03-05T06:13:01.445Z,16.20
2019-03-05T06:15:31.872Z,17.07
2019-03-05T06:18:02.066Z,14.20
2019-03-05T06:20:32.302Z,14.25
2019-03-05T06:23:02.812Z,11.38
2019-03-05T06:25:34.205Z,12.63
2019-03-05T06:28:04.397Z,15.28
2019-03-05T06:30:37.596Z,16.27
2019-03-05T06:33:08.879Z,13.40
2019-03-05T06:35:39.383Z,14.33
2019-03-05T06:38:09.585Z,14.30
2019-03-05T06:40:39.803Z,13.90
2019-03-05T06:43:10.078Z,16.48
2019-03-05T06:45:40.340Z,13.98
2019-03-05T06:48:10.705Z,15.10
2019-03-05T06:50:41.119Z,16.00
2019-03-05T06:53:11.369Z,13.58
2019-03-05T06:55:41.791Z,14.28
2019-03-05T06:58:12.121Z,18.25
2019-03-05T07:00:42.502Z,17.77
2019-03-05T07:03:12.759Z,15.48
2019-03-05T07:06:20.043Z,14.90
2019-03-05T07:08:53.324Z,15.98
2019-03-05T07:11:29.427Z,13.20
2019-03-05T07:14:03.255Z,17.10
2019-03-05T07:16:39.197Z,17.82
2019-03-05T07:19:09.593Z,14.23
2019-03-05T07:21:55.008Z,17.48
2019-03-05T07:24:38.071Z,24.60
2019-03-05T07:27:08.710Z,15.80
2019-03-05T07:29:39.056Z,12.90
2019-03-05T07:32:09.478Z,16.60
2019-03-05T07:34:41.348Z,8.53
2019-03-05T07:37:12.540Z,8.43
2019-03-05T07:39:42.780Z,8.88
2019-03-05T07:42:13.250Z,15.65
2019-03-05T07:44:43.531Z,7.37
2019-03-05T07:47:13.779Z,6.50
2019-03-05T07:49:44.426Z,7.08
2019-03-05T07:52:14.783Z,10.55
2019-03-05T07:54:45.676Z,8.80
2019-03-05T07:57:15.846Z,8.18
2019-03-05T07:59:46.154Z,9.28
2019-03-05T08:02:17.987Z,8.43
2019-03-05T08:04:48.267Z,11.90
2019-03-05T08:07:18.457Z,8.23
2019-03-05T08:09:49.589Z,8.13
2019-03-05T08:12:28.563Z,6.05
2019-03-05T08:15:18.375Z,7.58
2019-03-05T08:17:48.703Z,7.85
2019-03-05T08:20:19.009Z,6.70
2019-03-05T08:22:49.427Z,11.43
2019-03-05T08:25:19.752Z,6.17
2019-03-05T08:27:50.791Z,7.87
2019-03-05T08:30:21.251Z,9.73
2019-03-05T08:32:51.639Z,7.70
2019-03-05T08:35:21.977Z,8.95
2019-03-05T08:37:52.271Z,4.60
2019-03-05T08:40:22.578Z,9.90
2019-03-05T08:42:52.878Z,11.75
2019-03-05T08:45:29.493Z,8.75
2019-03-05T08:47:56.136Z,6.03
2019-03-05T08:50:26.468Z,9.80
2019-03-05T08:52:56.727Z,3.45
2019-03-05T08:55:27.147Z,6.53
2019-03-05T08:57:57.392Z,6.20
2019-03-05T09:00:27.636Z,4.83
2019-03-05T09:02:57.987Z,5.45
2019-03-05T09:05:29.082Z,5.80
2019-03-05T09:07:59.357Z,6.40
2019-03-05T09:10:30.851Z,19.85
2019-03-05T09:13:01.173Z,41.53
2019-03-05T09:15:31.555Z,21.50
2019-03-05T09:18:01.796Z,9.45
2019-03-05T09:20:32.115Z,9.95
2019-03-05T09:23:02.364Z,8.88
2019-03-05T09:25:32.743Z,7.83
2019-03-05T09:28:03.069Z,4.50
2019-03-05T09:30:33.383Z,8.45
2019-03-05T09:33:03.705Z,10.82
2019-03-05T09:35:33.947Z,12.13
2019-03-05T09:38:04.709Z,23.05
2019-03-05T09:40:35.308Z,9.10
2019-03-05T09:43:05.811Z,7.42
2019-03-05T09:45:36.139Z,8.93
2019-03-05T09:48:06.458Z,19.73
2019-03-05T09:50:36.709Z,10.58
2019-03-05T09:53:06.989Z,6.65
2019-03-05T09:55:37.347Z,10.08
2019-03-05T09:58:08.759Z,6.20
2019-03-05T10:00:40.685Z,10.08
2019-03-05T10:03:11.047Z,9.60
2019-03-05T10:05:41.390Z,7.45
2019-03-05T10:08:12.558Z,5.05
2019-03-05T10:10:43.079Z,9.68
2019-03-05T10:13:13.503Z,7.97
2019-03-05T10:15:43.975Z,8.58
2019-03-05T10:18:14.319Z,8.15
2019-03-05T10:20:44.922Z,15.80
2019-03-05T10:23:15.831Z,7.87
2019-03-05T10:25:46.359Z,5.72
2019-03-05T10:28:16.616Z,10.13
2019-03-05T10:30:47.036Z,12.93
2019-03-05T10:33:18.422Z,5.90
2019-03-05T10:35:48.738Z,5.85
2019-03-05T10:38:18.996Z,3.55
2019-03-05T10:40:57.527Z,12.45
2019-03-05T10:43:27.775Z,8.88
2019-03-05T10:45:58.122Z,5.92
2019-03-05T10:48:30.228Z,5.53
2019-03-05T10:51:00.413Z,7.60
2019-03-05T10:53:35.205Z,10.23
2019-03-05T10:56:07.531Z,5.85
2019-03-05T10:58:38.560Z,9.20
2019-03-05T11:01:09.998Z,9.83
2019-03-05T11:03:40.671Z,7.62
2019-03-05T11:06:11.000Z,3.20
2019-03-05T11:08:43.965Z,10.18
2019-03-05T11:11:14.336Z,5.45
2019-03-05T11:13:44.584Z,3.60
2019-03-05T11:16:15.310Z,9.15
2019-03-05T11:18:45.670Z,12.30
2019-03-05T11:21:16.516Z,11.53
2019-03-05T11:23:46.848Z,6.33
2019-03-05T11:26:17.160Z,3.00
2019-03-05T11:28:47.439Z,6.58
2019-03-05T11:31:17.752Z,5.40
2019-03-05T11:33:48.348Z,7.45
2019-03-05T11:36:18.671Z,4.12
2019-03-05T11:38:48.916Z,9.25
2019-03-05T11:41:19.260Z,4.80
2019-03-05T11:43:49.509Z,4.15
2019-03-05T11:46:19.853Z,4.67
2019-03-05T11:48:50.482Z,4.53
2019-03-05T11:51:20.765Z,4.72
2019-03-05T11:53:51.340Z,9.30
2019-03-05T11:56:22.303Z,7.30
2019-03-05T11:58:52.599Z,10.53
2019-03-05T12:01:25.115Z,10.38
2019-03-05T12:03:55.413Z,6.03
2019-03-05T12:06:25.755Z,4.65
2019-03-05T12:08:57.658Z,4.25
2019-03-05T12:11:28.991Z,10.25
2019-03-05T12:14:00.861Z,5.65
2019-03-05T12:16:32.348Z,12.30
2019-03-05T12:19:02.677Z,8.18
2019-03-05T12:21:33.950Z,6.15
2019-03-05T12:24:04.288Z,5.22
2019-03-05T12:26:34.578Z,7.35
2019-03-05T12:29:04.875Z,8.60
2019-03-05T12:31:35.938Z,10.78
2019-03-05T12:34:06.254Z,6.72
2019-03-05T12:36:36.680Z,7.85
2019-03-05T12:39:09.098Z,6.37
2019-03-05T12:44:10.067Z,9.38
2019-03-05T12:46:40.232Z,6.78
2019-03-05T12:49:13.115Z,11.70
2019-03-05T12:51:45.591Z,7.40
2019-03-05T12:54:15.821Z,7.55
2019-03-05T12:56:48.536Z,15.08
2019-03-05T12:59:20.380Z,10.20
2019-03-05T13:01:51.158Z,8.83
2019-03-05T13:04:23.064Z,11.35
2019-03-05T13:06:53.455Z,5.70
2019-03-05T13:09:27.437Z,11.05
2019-03-05T13:11:57.861Z,4.70
2019-03-05T13:14:28.149Z,5.25
2019-03-05T13:16:59.997Z,4.28
2019-03-05T13:19:33.303Z,6.72
2019-03-05T13:22:04.920Z,1.82
2019-03-05T13:24:35.520Z,1.98
2019-03-05T13:27:06.338Z,4.78
2019-03-05T13:29:36.554Z,6.97
2019-03-05T13:32:09.300Z,4.80
2019-03-05T13:34:40.999Z,3.53
2019-03-05T13:37:11.575Z,4.15
2019-03-05T13:39:41.867Z,3.27
2019-03-05T13:42:12.111Z,9.00
2019-03-05T13:44:42.599Z,12.47
2019-03-05T13:47:13.557Z,3.05
2019-03-05T13:50:15.462Z,4.97
2019-03-05T13:53:01.407Z,3.22
2019-03-05T13:55:40.494Z,8.78
2019-03-05T13:58:22.613Z,5.28
2019-03-05T14:00:52.896Z,4.15
2019-03-05T14:03:28.744Z,8.58
2019-03-05T14:06:14.022Z,4.62
2019-03-05T14:08:47.164Z,6.87
2019-03-05T14:11:20.884Z,6.00
2019-03-05T14:13:51.624Z,4.55
2019-03-05T14:16:22.791Z,8.18
2019-03-05T14:18:53.222Z,9.95
2019-03-05T14:21:23.637Z,19.00
2019-03-05T14:23:55.139Z,15.35
2019-03-05T14:26:26.899Z,12.78
2019-03-05T14:28:57.288Z,12.37
2019-03-05T14:31:28.249Z,9.28
2019-03-05T14:33:58.513Z,6.67
2019-03-05T14:36:29.174Z,12.50
2019-03-05T14:39:00.258Z,6.65
2019-03-05T14:41:30.879Z,8.83
2019-03-05T14:44:01.192Z,6.70
2019-03-05T14:46:31.469Z,9.38
2019-03-05T14:49:02.869Z,8.90
2019-03-05T14:51:34.305Z,3.30
2019-03-05T14:54:05.898Z,9.77
2019-03-05T14:56:39.331Z,5.08
2019-03-05T14:59:12.355Z,4.60
2019-03-05T15:01:42.836Z,4.92
2019-03-05T15:04:13.264Z,6.60
2019-03-05T15:06:43.547Z,4.85
2019-03-05T15:09:15.374Z,5.25
2019-03-05T15:11:45.923Z,5.28
2019-03-05T15:14:16.231Z,7.75
2019-03-05T15:16:46.471Z,4.78
2019-03-05T15:19:21.438Z,7.28
2019-03-05T15:21:49.382Z,5.50
2019-03-05T15:24:19.851Z,8.05
2019-03-05T15:26:50.123Z,6.15
2019-03-05T15:29:20.465Z,6.50
2019-03-05T15:31:50.731Z,6.45
2019-03-05T15:34:21.171Z,9.30
2019-03-05T15:36:52.164Z,6.17
2019-03-05T15:39:22.729Z,8.83
2019-03-05T15:41:53.797Z,8.63
2019-03-05T15:44:24.153Z,8.40
2019-03-05T15:46:54.494Z,6.17
2019-03-05T15:49:24.880Z,5.67
2019-03-05T15:51:55.128Z,10.00
2019-03-05T15:54:25.474Z,7.55
2019-03-05T15:56:55.703Z,8.70
2019-03-05T15:59:26.093Z,7.15
2019-03-05T16:01:58.036Z,10.13
2019-03-05T16:04:28.418Z,10.00
2019-03-05T16:06:58.750Z,13.00
2019-03-05T16:09:30.111Z,9.60
2019-03-05T16:12:00.507Z,13.60
2019-03-05T16:14:32.910Z,15.03
2019-03-05T16:17:02.921Z,14.53
2019-03-05T16:19:34.718Z,15.60
2019-03-05T16:22:05.042Z,15.48
2019-03-05T16:24:37.561Z,19.80
2019-03-05T16:27:09.831Z,19.27
2019-03-05T16:29:40.087Z,24.45
2019-03-05T16:32:11.968Z,29.02
2019-03-05T16:34:49.834Z,24.47
2019-03-05T16:37:27.464Z,20.77
2019-03-05T16:39:59.392Z,29.32
2019-03-05T16:45:30.290Z,20.02
2019-03-05T16:48:11.122Z,18.35
2019-03-05T16:50:49.104Z,17.98
2019-03-05T16:53:41.810Z,16.80
2019-03-05T16:56:19.662Z,19.37
2019-03-05T16:58:52.115Z,28.62
2019-03-05T17:01:26.637Z,30.55
2019-03-05T17:03:58.765Z,34.40
2019-03-05T17:06:36.318Z,36.60
2019-03-05T17:09:24.830Z,28.12
2019-03-05T17:11:58.014Z,25.68
2019-03-05T17:14:30.522Z,20.60
2019-03-05T17:17:00.961Z,17.77
2019-03-05T17:19:31.451Z,9.53
2019-03-05T17:22:02.104Z,8.63
2019-03-05T17:24:32.663Z,9.88
2019-03-05T17:27:02.971Z,11.90
2019-03-05T17:29:33.275Z,10.13
2019-03-05T17:32:03.711Z,9.78
2019-03-05T17:34:34.365Z,10.20
2019-03-05T17:37:06.162Z,9.50
2019-03-05T17:39:36.621Z,10.78
2019-03-05T17:42:06.939Z,10.65
2019-03-05T17:44:37.506Z,13.53
2019-03-05T17:47:08.306Z,10.55
2019-03-05T17:49:38.613Z,11.20
2019-03-05T17:52:09.205Z,13.78
2019-03-05T17:54:39.569Z,9.68
2019-03-05T17:57:10.404Z,11.65
2019-03-05T17:59:40.814Z,9.75
2019-03-05T18:02:11.190Z,9.93
2019-03-05T18:04:42.744Z,8.58
2019-03-05T18:07:13.178Z,25.77
2019-03-05T18:09:43.470Z,24.55
2019-03-05T18:12:14.260Z,12.37
2019-03-05T18:14:44.477Z,10.63
2019-03-05T18:17:14.876Z,38.28
2019-03-05T18:19:45.275Z,33.10
2019-03-05T18:22:16.652Z,28.62
2019-03-05T18:24:46.915Z,16.82
2019-03-05T18:27:17.468Z,17.17
2019-03-05T18:29:47.997Z,11.90
2019-03-05T18:32:18.265Z,12.60
2019-03-05T18:34:49.174Z,12.93
2019-03-05T18:37:19.627Z,12.23
2019-03-05T18:39:50.935Z,15.80
2019-03-05T18:42:21.197Z,12.43
2019-03-05T18:44:51.441Z,14.15
2019-03-05T18:47:21.702Z,15.78
2019-03-05T18:49:52.285Z,14.75
2019-03-05T18:52:22.933Z,14.60
2019-03-05T18:54:53.217Z,10.75
2019-03-05T18:57:23.489Z,13.83
2019-03-05T18:59:53.773Z,11.83
2019-03-05T19:02:28.509Z,11.43
2019-03-05T19:04:59.327Z,13.18
2019-03-05T19:07:29.624Z,9.90
2019-03-05T19:10:00.813Z,13.58
2019-03-05T19:12:31.664Z,10.98
2019-03-05T19:15:02.019Z,17.37
2019-03-05T19:17:33.816Z,13.98
2019-03-05T19:20:08.192Z,12.43
2019-03-05T19:22:39.038Z,12.25
2019-03-05T19:25:17.718Z,14.53
2019-03-05T19:27:48.180Z,16.48
2019-03-05T19:30:23.902Z,14.65
2019-03-05T19:32:54.137Z,12.03
2019-03-05T19:35:24.490Z,17.50
2019-03-05T19:37:54.755Z,20.55
2019-03-05T19:40:39.929Z,25.85
2019-03-05T19:43:10.092Z,21.82
2019-03-05T19:45:40.420Z,22.30
2019-03-05T19:48:10.755Z,20.75
2019-03-05T19:50:41.171Z,16.85
2019-03-05T19:53:11.514Z,18.62
2019-03-05T19:55:41.868Z,25.62
2019-03-05T19:58:25.900Z,25.72
2019-03-05T20:01:17.616Z,23.10
2019-03-05T20:03:47.925Z,18.50
2019-03-05T20:06:18.478Z,16.90
2019-03-05T20:08:49.466Z,15.48
2019-03-05T20:11:20.177Z,12.50
2019-03-05T20:13:50.472Z,12.98
2019-03-05T20:16:20.809Z,14.13
2019-03-05T20:18:51.183Z,12.37
2019-03-05T20:21:21.517Z,15.60
2019-03-05T20:23:51.811Z,15.53
2019-03-05T20:26:22.151Z,15.45
2019-03-05T20:28:53.569Z,14.65
2019-03-05T20:31:23.964Z,18.32
2019-03-05T20:33:55.466Z,17.95
2019-03-05T20:36:25.830Z,17.05
2019-03-05T20:38:56.117Z,16.55
2019-03-05T20:41:27.138Z,15.65
2019-03-05T20:43:57.571Z,17.17
2019-03-05T20:46:27.938Z,15.13
2019-03-05T20:48:59.291Z,14.23
2019-03-05T20:51:29.766Z,13.40
2019-03-05T20:54:00.649Z,12.28
2019-03-05T20:56:31.316Z,12.00
2019-03-05T20:59:03.570Z,12.10
2019-03-05T21:01:34.510Z,12.45
2019-03-05T21:04:05.458Z,12.70
2019-03-05T21:06:36.189Z,10.58
2019-03-05T21:09:09.477Z,12.68
2019-03-05T21:11:40.680Z,10.82
2019-03-05T21:14:11.285Z,11.48
2019-03-05T21:16:41.725Z,9.95
2019-03-05T21:19:12.008Z,9.00
2019-03-05T21:21:49.100Z,8.98
2019-03-05T21:24:20.580Z,10.15
2019-03-05T21:26:50.838Z,9.48
2019-03-05T21:29:21.318Z,10.53
2019-03-05T21:31:52.737Z,9.18
2019-03-05T21:34:23.042Z,10.45
2019-03-05T21:36:53.423Z,12.05
2019-03-05T21:39:24.825Z,13.25
2019-03-05T21:41:55.261Z,14.55
2019-03-05T21:44:26.811Z,17.07
2019-03-05T21:47:01.429Z,15.00
2019-03-05T21:49:33.598Z,17.20
2019-03-05T21:52:03.966Z,17.42
2019-03-05T21:54:34.277Z,18.95
2019-03-05T21:57:05.205Z,16.40
2019-03-05T21:59:35.508Z,13.40
2019-03-05T22:02:15.134Z,15.68
2019-03-05T22:05:13.699Z,10.30
2019-03-05T22:07:57.438Z,9.88
2019-03-05T22:10:33.774Z,8.40
2019-03-05T22:13:06.844Z,9.03
2019-03-05T22:15:37.753Z,11.08
2019-03-05T22:18:12.134Z,10.20
2019-03-05T22:20:42.904Z,14.70
2019-03-05T22:24:03.302Z,19.42
2019-03-05T22:25:58.113Z,24.72
2019-03-05T22:28:35.662Z,23.10
2019-03-05T22:31:09.385Z,21.25
2019-03-05T22:36:09.044Z,18.90
2019-03-05T22:38:45.226Z,17.77
2019-03-05T22:41:15.573Z,16.70
2019-03-05T22:43:45.950Z,17.67
2019-03-05T22:46:25.056Z,14.47
2019-03-05T22:48:57.813Z,17.67
2019-03-05T22:51:28.376Z,13.95
2019-03-05T22:54:08.788Z,17.00
2019-03-05T22:56:45.601Z,14.70
2019-03-05T22:59:43.911Z,18.73
2019-03-05T23:02:14.302Z,14.80
2019-03-05T23:04:54.095Z,16.05
2019-03-05T23:07:33.124Z,16.82
2019-03-05T23:10:04.494Z,15.32
2019-03-05T23:12:35.548Z,18.45
2019-03-05T23:15:09.473Z,13.60
2019-03-05T23:17:44.200Z,14.98
2019-03-05T23:20:18.075Z,14.38
2019-03-05T23:22:48.580Z,15.08
2019-03-05T23:25:20.757Z,12.55
2019-03-05T23:27:54.727Z,13.00
2019-03-05T23:30:24.997Z,14.07
2019-03-05T23:32:57.377Z,14.60
2019-03-05T23:35:30.446Z,16.30
2019-03-05T23:38:01.686Z,11.65
2019-03-05T23:40:43.940Z,11.48
2019-03-05T23:43:16.152Z,13.80
2019-03-05T23:46:04.120Z,12.10
2019-03-05T23:48:36.444Z,17.35
2019-03-05T23:51:06.785Z,16.27
2019-03-05T23:53:37.075Z,13.25
2019-03-05T23:56:25.665Z,15.38
2019-03-05T23:58:56.927Z,14.63
